Time;durP1;ratioP1;P1;durP2;ratioP2;P2;SDS_P1;SDS_P2;PMS_P1;PMS_P2;Temp;Humidity;BMP_temperature;BMP_pressure;BME280_temperature;BME280_humidity;BME280_pressure;Samples;Min_cycle;Max_cycle;Signal;HPM_P1;HPM_P2
2021/01/07 00:02:19;;;;;;;191.50;103.43;;;;;;;;;;5037166;28;20048;-73
2021/01/07 00:04:46;;;;;;;194.70;103.45;;;;;;;;;;5036643;28;20065;-73
2021/01/07 00:07:14;;;;;;;185.55;98.72;;;;;;;;;;5036103;28;20053;-73
2021/01/07 00:09:42;;;;;;;198.70;103.22;;;;;;;;;;5036724;28;20103;-73
2021/01/07 00:12:10;;;;;;;211.00;109.85;;;;;;;;;;5055837;28;20064;-73
2021/01/07 00:14:38;;;;;;;230.98;118.45;;;;;;;;;;5052546;28;20678;-72
2021/01/07 00:17:06;;;;;;;228.40;118.00;;;;;;;;;;5051876;28;20496;-72
2021/01/07 00:19:33;;;;;;;244.80;122.03;;;;;;;;;;5052552;28;20052;-73
2021/01/07 00:22:01;;;;;;;258.65;130.45;;;;;;;;;;5052068;28;20045;-73
2021/01/07 00:24:29;;;;;;;265.95;132.48;;;;;;;;;;5040960;28;20041;-72
2021/01/07 00:26:56;;;;;;;248.00;126.50;;;;;;;;;;5017419;28;20081;-73
2021/01/07 00:29:24;;;;;;;232.18;117.30;;;;;;;;;;5039717;28;20047;-73
2021/01/07 00:31:52;;;;;;;219.07;109.57;;;;;;;;;;5021166;28;20142;-73
2021/01/07 00:34:21;;;;;;;208.30;105.40;;;;;;;;;;5031957;28;20149;-73
2021/01/07 00:36:56;;;;;;;187.25;98.88;;;;;;;;;;5033957;28;20385;-73
2021/01/07 00:39:24;;;;;;;173.18;90.45;;;;;;;;;;5015419;28;20069;-73
2021/01/07 00:41:59;;;;;;;175.70;96.95;;;;;;;;;;5014145;28;20069;-73
2021/01/07 00:44:28;;;;;;;179.52;96.30;;;;;;;;;;4998147;28;20069;-73
2021/01/07 00:46:55;;;;;;;181.77;97.25;;;;;;;;;;4996772;28;20168;-73
2021/01/07 00:49:23;;;;;;;172.63;93.63;;;;;;;;;;5014197;28;20484;-73
2021/01/07 00:51:52;;;;;;;150.43;81.13;;;;;;;;;;5013588;28;20428;-73
2021/01/07 00:54:22;;;;;;;132.57;73.20;;;;;;;;;;5014294;28;20454;-73
2021/01/07 00:56:53;;;;;;;130.37;71.47;;;;;;;;;;5034766;28;20168;-73
2021/01/07 00:59:26;;;;;;;117.03;65.30;;;;;;;;;;5021576;28;20738;-74
2021/01/07 01:01:54;;;;;;;108.25;60.45;;;;;;;;;;5032427;28;20076;-73
2021/01/07 01:04:22;;;;;;;106.00;58.15;;;;;;;;;;5030841;28;20477;-73
2021/01/07 01:06:49;;;;;;;99.63;56.42;;;;;;;;;;5013674;28;20160;-73
2021/01/07 01:09:17;;;;;;;95.88;54.47;;;;;;;;;;5013927;28;20081;-73
2021/01/07 01:11:47;;;;;;;97.32;54.13;;;;;;;;;;5031554;28;20041;-72
2021/01/07 01:14:18;;;;;;;89.15;49.83;;;;;;;;;;5015718;28;20049;-72
2021/01/07 01:16:48;;;;;;;92.65;49.40;;;;;;;;;;5030767;28;20416;-72
2021/01/07 01:19:19;;;;;;;91.18;50.78;;;;;;;;;;5013163;28;20052;-72
2021/01/07 01:21:52;;;;;;;86.45;49.70;;;;;;;;;;5035952;28;20157;-73
2021/01/07 01:24:21;;;;;;;82.78;46.58;;;;;;;;;;5017383;28;20049;-73
2021/01/07 01:26:57;;;;;;;87.32;45.58;;;;;;;;;;5030713;28;20080;-73
2021/01/07 01:29:25;;;;;;;79.43;46.58;;;;;;;;;;5013334;28;20428;-73
2021/01/07 01:31:54;;;;;;;81.10;45.78;;;;;;;;;;5011979;28;20067;-73
2021/01/07 01:34:22;;;;;;;80.70;44.85;;;;;;;;;;5032995;28;20411;-73
2021/01/07 01:36:51;;;;;;;79.10;46.03;;;;;;;;;;5037005;28;20049;-73
2021/01/07 01:39:20;;;;;;;74.45;44.45;;;;;;;;;;5050614;28;20041;-73
2021/01/07 01:41:49;;;;;;;84.38;46.55;;;;;;;;;;5052263;28;20095;-73
2021/01/07 01:44:18;;;;;;;79.55;44.78;;;;;;;;;;5048780;28;20067;-73
2021/01/07 01:46:46;;;;;;;79.47;43.95;;;;;;;;;;5037623;28;20099;-73
2021/01/07 01:49:18;;;;;;;75.43;41.53;;;;;;;;;;5049732;28;20042;-73
2021/01/07 01:51:46;;;;;;;76.28;41.90;;;;;;;;;;5036238;28;20048;-73
2021/01/07 01:54:13;;;;;;;79.97;40.28;;;;;;;;;;5032643;28;20146;-73
2021/01/07 01:56:44;;;;;;;73.20;40.28;;;;;;;;;;5016035;28;20080;-73
2021/01/07 01:59:12;;;;;;;68.00;38.10;;;;;;;;;;5054711;28;20049;-73
2021/01/07 02:01:43;;;;;;;67.03;38.75;;;;;;;;;;5016214;28;20065;-73
2021/01/07 02:04:11;;;;;;;70.57;40.25;;;;;;;;;;5015838;28;20144;-72
2021/01/07 02:06:39;;;;;;;68.18;38.90;;;;;;;;;;5048595;28;20076;-72
2021/01/07 02:09:07;;;;;;;81.93;43.78;;;;;;;;;;5015102;28;20064;-73
2021/01/07 02:11:35;;;;;;;88.30;48.13;;;;;;;;;;5020680;28;20047;-72
2021/01/07 02:14:03;;;;;;;89.05;49.55;;;;;;;;;;5014280;28;20057;-72
2021/01/07 02:16:31;;;;;;;91.53;52.00;;;;;;;;;;5018920;28;20867;-73
2021/01/07 02:18:58;;;;;;;101.25;57.03;;;;;;;;;;5051181;28;20037;-72
2021/01/07 02:21:26;;;;;;;101.53;56.80;;;;;;;;;;5015037;28;20057;-72
2021/01/07 02:23:55;;;;;;;97.65;55.83;;;;;;;;;;5031489;28;20451;-73
2021/01/07 02:26:24;;;;;;;98.30;54.83;;;;;;;;;;5054174;28;20508;-73
2021/01/07 02:28:52;;;;;;;99.95;57.42;;;;;;;;;;5014628;28;20053;-72
2021/01/07 02:31:20;;;;;;;96.95;55.35;;;;;;;;;;4995546;28;20424;-72
2021/01/07 02:33:48;;;;;;;82.75;51.78;;;;;;;;;;5028851;28;20124;-71
2021/01/07 02:36:16;;;;;;;88.63;48.67;;;;;;;;;;5010732;28;20080;-72
2021/01/07 02:38:44;;;;;;;78.18;46.88;;;;;;;;;;5027782;28;20103;-72
2021/01/07 02:41:11;;;;;;;85.25;46.75;;;;;;;;;;5015280;28;20575;-72
2021/01/07 02:43:39;;;;;;;77.47;45.55;;;;;;;;;;4995100;28;20140;-73
2021/01/07 02:46:07;;;;;;;74.70;42.15;;;;;;;;;;5027815;28;20053;-73
2021/01/07 02:48:35;;;;;;;76.70;42.53;;;;;;;;;;5012677;28;20537;-73
2021/01/07 02:51:03;;;;;;;65.45;39.00;;;;;;;;;;5033412;28;20073;-73
2021/01/07 02:53:32;;;;;;;64.20;37.70;;;;;;;;;;5028016;28;20092;-73
2021/01/07 02:55:59;;;;;;;66.88;41.75;;;;;;;;;;5026887;28;20861;-73
2021/01/07 02:58:38;;;;;;;65.93;39.28;;;;;;;;;;5035827;28;20143;-72
2021/01/07 03:01:06;;;;;;;66.07;37.38;;;;;;;;;;5028942;28;20038;-73
2021/01/07 03:03:33;;;;;;;62.60;36.17;;;;;;;;;;5017361;28;20046;-73
2021/01/07 03:06:01;;;;;;;58.58;36.72;;;;;;;;;;5011549;28;20086;-73
2021/01/07 03:08:28;;;;;;;56.65;35.05;;;;;;;;;;5027501;28;20060;-73
2021/01/07 03:10:56;;;;;;;59.80;36.58;;;;;;;;;;5011482;28;20089;-73
2021/01/07 03:13:23;;;;;;;56.08;34.22;;;;;;;;;;5013117;28;20088;-73
2021/01/07 03:15:51;;;;;;;64.45;36.58;;;;;;;;;;5011253;28;20420;-73
2021/01/07 03:18:19;;;;;;;55.85;33.80;;;;;;;;;;5033170;28;20050;-73
2021/01/07 03:20:46;;;;;;;62.17;35.83;;;;;;;;;;5016127;28;20057;-73
2021/01/07 03:23:15;;;;;;;52.63;31.67;;;;;;;;;;5011665;28;20408;-74
2021/01/07 03:25:42;;;;;;;56.88;33.60;;;;;;;;;;5014859;28;20053;-73
2021/01/07 03:28:10;;;;;;;52.92;32.08;;;;;;;;;;5033285;28;20073;-73
2021/01/07 03:30:38;;;;;;;51.95;29.83;;;;;;;;;;5036088;28;20466;-72
2021/01/07 03:33:06;;;;;;;54.75;32.90;;;;;;;;;;5039080;28;20467;-73
2021/01/07 03:35:34;;;;;;;51.38;30.63;;;;;;;;;;5018034;28;20412;-73
2021/01/07 03:38:01;;;;;;;49.45;31.27;;;;;;;;;;5052100;28;20060;-73
2021/01/07 03:40:29;;;;;;;56.60;31.38;;;;;;;;;;5008391;28;20075;-73
2021/01/07 03:42:57;;;;;;;48.53;29.25;;;;;;;;;;5035400;28;20040;-73
2021/01/07 03:45:25;;;;;;;50.92;29.90;;;;;;;;;;5000639;28;20131;-73
2021/01/07 03:47:54;;;;;;;50.65;29.83;;;;;;;;;;5017685;28;20053;-73
2021/01/07 03:50:22;;;;;;;51.30;29.33;;;;;;;;;;5033998;28;20439;-73
2021/01/07 03:52:49;;;;;;;43.40;28.52;;;;;;;;;;5052012;28;20164;-73
2021/01/07 03:55:17;;;;;;;52.00;29.88;;;;;;;;;;5016947;28;20424;-73
2021/01/07 03:57:45;;;;;;;53.90;31.38;;;;;;;;;;5033554;28;20530;-73
2021/01/07 04:00:14;;;;;;;54.58;31.85;;;;;;;;;;5056502;28;20399;-73
2021/01/07 04:02:41;;;;;;;55.17;31.75;;;;;;;;;;5051580;28;20195;-73
2021/01/07 04:05:10;;;;;;;56.45;34.17;;;;;;;;;;5034007;28;20403;-73
2021/01/07 04:07:38;;;;;;;54.03;30.45;;;;;;;;;;5017584;28;20060;-73
2021/01/07 04:10:07;;;;;;;59.28;34.70;;;;;;;;;;5017248;28;20061;-73
2021/01/07 04:12:36;;;;;;;47.03;30.08;;;;;;;;;;5038581;28;20147;-73
2021/01/07 04:15:06;;;;;;;53.58;31.98;;;;;;;;;;5051386;28;20131;-73
2021/01/07 04:17:34;;;;;;;50.95;30.30;;;;;;;;;;5020651;28;20052;-73
2021/01/07 04:20:04;;;;;;;54.72;31.20;;;;;;;;;;5017812;28;20084;-73
2021/01/07 04:22:31;;;;;;;52.42;30.90;;;;;;;;;;5034602;28;20056;-73
2021/01/07 04:24:59;;;;;;;55.25;32.10;;;;;;;;;;5034244;28;20056;-73
2021/01/07 04:27:27;;;;;;;60.50;34.90;;;;;;;;;;5034031;28;20158;-72
2021/01/07 04:29:54;;;;;;;53.53;32.10;;;;;;;;;;5037214;28;20045;-72
2021/01/07 04:32:22;;;;;;;54.28;31.45;;;;;;;;;;4998398;28;20136;-73
2021/01/07 04:34:50;;;;;;;45.63;28.83;;;;;;;;;;5014083;28;20076;-73
2021/01/07 04:37:17;;;;;;;50.33;29.05;;;;;;;;;;5002818;28;20052;-73
2021/01/07 04:39:44;;;;;;;48.88;29.00;;;;;;;;;;5014482;28;20491;-73
2021/01/07 04:42:13;;;;;;;47.90;28.73;;;;;;;;;;5014294;28;20085;-73
2021/01/07 04:44:42;;;;;;;45.10;29.38;;;;;;;;;;5013145;28;20065;-72
2021/01/07 04:47:10;;;;;;;47.28;28.30;;;;;;;;;;5014009;28;20045;-73
2021/01/07 04:49:39;;;;;;;48.97;28.48;;;;;;;;;;4998311;28;20041;-73
2021/01/07 04:52:06;;;;;;;45.35;28.00;;;;;;;;;;5035566;28;20041;-73
2021/01/07 04:54:34;;;;;;;41.83;26.48;;;;;;;;;;5013280;28;20235;-72
2021/01/07 04:57:03;;;;;;;41.38;27.77;;;;;;;;;;5033712;28;20049;-72
2021/01/07 04:59:30;;;;;;;38.28;23.42;;;;;;;;;;4998046;28;20188;-72
2021/01/07 05:01:58;;;;;;;41.97;25.77;;;;;;;;;;5014522;28;20041;-72
2021/01/07 05:04:26;;;;;;;39.97;27.30;;;;;;;;;;5013963;28;20061;-72
2021/01/07 05:06:54;;;;;;;47.22;29.33;;;;;;;;;;5013277;28;20057;-72
2021/01/07 05:09:22;;;;;;;51.83;29.83;;;;;;;;;;4997356;28;20105;-72
2021/01/07 05:11:50;;;;;;;46.20;27.95;;;;;;;;;;5014273;28;20439;-72
2021/01/07 05:14:17;;;;;;;41.97;27.27;;;;;;;;;;5013601;28;20148;-72
2021/01/07 05:16:45;;;;;;;43.55;27.27;;;;;;;;;;5003824;28;20078;-74
2021/01/07 05:19:13;;;;;;;40.83;24.65;;;;;;;;;;5014835;28;20042;-72
2021/01/07 05:21:41;;;;;;;42.78;27.95;;;;;;;;;;4982804;28;20485;-73
2021/01/07 05:24:10;;;;;;;43.95;26.20;;;;;;;;;;5012144;28;20046;-73
2021/01/07 05:26:38;;;;;;;45.20;27.38;;;;;;;;;;4993557;28;20069;-73
2021/01/07 05:29:05;;;;;;;133.75;66.15;;;;;;;;;;4993281;28;20470;-73
2021/01/07 05:31:33;;;;;;;95.05;48.25;;;;;;;;;;5010716;28;20057;-73
2021/01/07 05:34:01;;;;;;;53.42;32.65;;;;;;;;;;5030191;28;20065;-73
2021/01/07 05:36:30;;;;;;;50.88;30.80;;;;;;;;;;5029552;28;20045;-73
2021/01/07 05:39:07;;;;;;;45.17;29.90;;;;;;;;;;5017573;28;20057;-73
2021/01/07 05:41:35;;;;;;;41.40;27.73;;;;;;;;;;5031792;28;20065;-73
2021/01/07 05:44:12;;;;;;;49.90;31.38;;;;;;;;;;5015505;28;20045;-72
2021/01/07 05:46:40;;;;;;;39.75;28.38;;;;;;;;;;5031987;28;20124;-73
2021/01/07 05:49:08;;;;;;;46.53;31.20;;;;;;;;;;5031172;28;20063;-72
2021/01/07 05:51:38;;;;;;;46.28;31.55;;;;;;;;;;5048121;28;20111;-72
2021/01/07 05:54:06;;;;;;;48.10;33.88;;;;;;;;;;5048655;28;20041;-72
2021/01/07 05:56:34;;;;;;;49.88;32.63;;;;;;;;;;5015612;28;20060;-72
2021/01/07 05:59:02;;;;;;;52.72;32.63;;;;;;;;;;5031862;28;20133;-72
2021/01/07 06:01:30;;;;;;;44.78;31.23;;;;;;;;;;5023564;28;20049;-73
2021/01/07 06:03:58;;;;;;;45.95;29.92;;;;;;;;;;5039561;28;20132;-76
2021/01/07 06:06:26;;;;;;;40.40;26.35;;;;;;;;;;5016789;28;20103;-72
2021/01/07 06:08:58;;;;;;;44.78;31.00;;;;;;;;;;5038332;28;20128;-72
2021/01/07 06:11:26;;;;;;;40.70;25.63;;;;;;;;;;5055158;28;20055;-72
2021/01/07 06:13:54;;;;;;;40.55;28.77;;;;;;;;;;5036389;28;20107;-71
2021/01/07 06:16:27;;;;;;;51.58;33.17;;;;;;;;;;5047868;28;20047;-72
2021/01/07 06:19:40;;;;;;;39.28;26.98;;;;;;;;;;5031194;28;20052;-71
2021/01/07 06:22:13;;;;;;;32.17;23.58;;;;;;;;;;5022630;28;20037;-71
2021/01/07 06:24:43;;;;;;;35.33;23.45;;;;;;;;;;5063485;28;20376;-71
2021/01/07 06:27:21;;;;;;;36.35;25.58;;;;;;;;;;5013170;28;20531;-71
2021/01/07 06:29:49;;;;;;;39.45;25.23;;;;;;;;;;5019391;28;20594;-71
2021/01/07 06:32:18;;;;;;;35.08;25.40;;;;;;;;;;5030513;28;20056;-72
2021/01/07 06:34:48;;;;;;;33.90;24.52;;;;;;;;;;5030371;28;20056;-71
2021/01/07 06:37:47;;;;;;;38.13;27.27;;;;;;;;;;5021485;28;20048;-71
2021/01/07 06:40:17;;;;;;;38.83;27.33;;;;;;;;;;5013293;28;20080;-71
2021/01/07 06:42:50;;;;;;;41.67;27.90;;;;;;;;;;5054642;28;20053;-71
2021/01/07 06:45:24;;;;;;;43.88;28.77;;;;;;;;;;5022058;28;20037;-72
2021/01/07 06:47:56;;;;;;;47.20;30.35;;;;;;;;;;5039302;28;20048;-72
2021/01/07 06:50:25;;;;;;;40.47;26.80;;;;;;;;;;5049174;28;20825;-72
2021/01/07 06:52:53;;;;;;;40.25;28.63;;;;;;;;;;5031998;28;20115;-75
2021/01/07 06:55:21;;;;;;;38.67;27.25;;;;;;;;;;5016286;28;20466;-75
2021/01/07 06:57:58;;;;;;;39.13;26.42;;;;;;;;;;5049610;28;20061;-74
2021/01/07 07:00:27;;;;;;;47.58;30.00;;;;;;;;;;5054070;28;20049;-73
2021/01/07 07:03:03;;;;;;;41.88;29.30;;;;;;;;;;5020890;28;20044;-72
2021/01/07 07:05:34;;;;;;;47.13;31.73;;;;;;;;;;5041851;28;20049;-73
2021/01/07 07:08:14;;;;;;;42.40;25.77;;;;;;;;;;5043620;28;20048;-73
2021/01/07 07:10:41;;;;;;;40.85;25.85;;;;;;;;;;5043881;28;20045;-72
2021/01/07 07:13:22;;;;;;;35.72;24.80;;;;;;;;;;5060486;28;20049;-73
2021/01/07 07:15:50;;;;;;;37.30;22.92;;;;;;;;;;5018989;28;20115;-73
2021/01/07 07:18:37;;;;;;;35.30;23.83;;;;;;;;;;5043306;28;20049;-72
2021/01/07 07:21:21;;;;;;;40.15;23.90;;;;;;;;;;5042693;28;20143;-73
2021/01/07 07:40:50;;;;;;;23.10;13.50;;;;;;;13.98;92.67;99764.92;1711095;76;2350986;-66
2021/01/07 07:43:19;;;;;;;36.63;14.68;;;;;;;15.26;91.07;99775.33;1628397;81;135373;-67
2021/01/07 07:45:48;;;;;;;45.40;17.57;;;;;;;16.33;76.31;99769.27;1643718;81;277551;-68
2021/01/07 07:48:19;;;;;;;41.50;16.30;;;;;;;17.08;70.25;99772.37;1613922;81;2656533;-67
2021/01/07 07:52:28;;;;;;;26.95;17.37;;;;;;;18.06;60.27;99776.14;1884970;74;22946;-72
2021/01/07 07:55:05;;;;;;;22.10;15.98;;;;;;;16.40;50.82;99780.96;1836802;75;103045;-72
2021/01/07 07:57:48;;;;;;;31.10;18.67;;;;;;;14.16;50.33;99768.73;1822542;77;30587;-72
2021/01/07 08:00:18;;;;;;;24.47;17.90;;;;;;;12.04;51.74;99766.84;1787512;80;21177;-72
2021/01/07 08:02:50;;;;;;;25.17;18.53;;;;;;;10.32;53.63;99770.34;1754053;80;21245;-72
2021/01/07 08:05:30;;;;;;;27.15;20.52;;;;;;;9.02;55.06;99772.64;1786717;79;21207;-70
2021/01/07 08:08:00;;;;;;;29.00;20.20;;;;;;;8.02;56.86;99768.80;1787842;79;21612;-70
2021/01/07 08:10:28;;;;;;;29.60;20.12;;;;;;;7.19;58.24;99763.98;1786751;79;21188;-71
2021/01/07 08:12:56;;;;;;;25.37;19.25;;;;;;;6.44;59.24;99770.13;1771848;78;32730;-71
2021/01/07 08:15:32;;;;;;;29.02;21.17;;;;;;;5.86;60.36;99766.33;1721304;78;42660;-71
2021/01/07 08:52:02;;;;;;;42.98;31.17;;;;;;;;;;1809269;77;22827;-70
2021/01/07 08:54:30;;;;;;;61.23;40.03;;;;;;;;;;1663650;79;508580;-70
2021/01/07 08:57:03;;;;;;;51.48;32.58;;;;;;;;;;1659879;80;33633;-70
2021/01/07 09:25:51;;;;;;;27.77;24.80;;;;;;;16.80;44.46;100021.54;1791683;76;41040;-74
2021/01/07 09:28:20;;;;;;;25.15;20.48;;;;;;;14.92;40.84;99801.27;1753599;80;36557;-74
2021/01/07 09:30:48;;;;;;;31.75;28.38;;;;;;;12.54;41.62;99686.67;1759287;81;21297;-74
2021/01/07 09:40:28;;;;;;;25.35;19.55;;;;;;;;;;1766622;79;135334;-72
2021/01/07 09:44:12;;;;;;;31.15;22.67;;;;;;;;;;1750119;77;204014;-74
2021/01/07 09:47:29;;;;;;;32.67;24.05;;;;;;;;;;1728899;79;23429;-73
2021/01/07 09:52:26;;;;;;;39.25;29.32;;;;;;;;;;1811151;77;24264;-74
2021/01/07 10:05:53;;;;;;;30.90;21.17;;;;;;;17.24;67.85;99758.14;1853046;77;22786;-65
2021/01/07 10:08:21;;;;;;;33.13;20.95;;;;;;;18.45;63.82;99760.06;1760043;77;48123;-63
2021/01/07 10:10:49;;;;;;;27.07;19.65;;;;;;;19.17;58.94;99767.75;1683037;82;29783;-65
2021/01/07 10:13:17;;;;;;;25.10;17.70;;;;;;;19.92;55.84;99772.58;1684081;83;27537;-53
2021/01/07 10:15:46;;;;;;;28.12;19.98;;;;;;;20.58;52.75;99775.48;1670205;83;25691;-56
2021/01/07 10:18:15;;;;;;;28.70;19.87;;;;;;;21.02;50.55;99777.66;1658455;86;21645;-65
2021/01/07 10:20:42;;;;;;;1115.55;569.97;;;;;;;21.41;49.17;99776.24;1657568;86;21243;-59
2021/01/07 10:26:18;;;;;;;38.60;29.40;;;;;;;22.82;48.26;99774.62;1801054;78;172514;-70
2021/01/07 10:29:07;;;;;;;32.60;23.23;;;;;;;23.27;47.14;99782.10;1747283;77;1724673;-68
2021/01/07 10:31:36;;;;;;;32.28;24.00;;;;;;;23.43;46.42;99782.41;1725537;81;26606;-65
2021/01/07 10:34:09;;;;;;;30.77;21.73;;;;;;;23.78;46.01;99778.70;1716073;82;33085;-68
2021/01/07 10:36:41;;;;;;;51.02;23.15;;;;;;;24.22;45.94;99780.30;1688443;82;29199;-63
2021/01/07 10:39:12;;;;;;;51.00;28.65;;;;;;;24.44;45.16;99791.39;1755665;81;26376;-61
2021/01/07 10:41:44;;;;;;;65.15;36.33;;;;;;;24.46;45.33;99784.64;1736634;79;30630;-56
2021/01/07 10:44:14;;;;;;;63.95;35.98;;;;;;;24.44;44.41;99788.69;1675738;82;33510;-52
2021/01/07 10:46:45;;;;;;;54.67;33.30;;;;;;;24.33;43.74;99780.58;1715316;81;21216;-53
2021/01/07 10:49:19;;;;;;;53.35;32.50;;;;;;;24.26;43.43;99781.40;1705228;82;222244;-59
2021/01/07 10:52:30;;;;;;;48.92;27.87;;;;;;;24.40;43.54;99782.99;1685606;82;128629;-62
2021/01/07 10:55:24;;;;;;;39.30;27.73;;;;;;;24.65;43.50;99791.05;1678098;82;33862;-53
2021/01/07 10:58:06;;;;;;;34.23;24.60;;;;;;;24.89;43.38;99785.86;1654670;86;21242;-64
2021/01/07 11:00:54;;;;;;;38.30;25.68;;;;;;;24.98;43.07;99782.56;1655425;86;21238;-61
2021/01/07 11:04:17;;;;;;;39.25;28.52;;;;;;;25.09;42.79;99785.48;1770772;79;23529;-62
2021/01/07 11:07:05;;;;;;;41.00;25.88;;;;;;;25.04;42.60;99787.67;1699362;83;22676;-63
2021/01/07 11:09:45;;;;;;;40.15;26.12;;;;;;;25.15;42.34;99778.20;1846045;77;28684;-64
2021/01/07 11:12:22;;;;;;;43.90;29.18;;;;;;;25.12;42.38;99778.20;1739256;79;29605;-59
2021/01/07 11:15:05;;;;;;;40.92;27.67;;;;;;;25.04;41.68;99782.81;1738661;82;21143;-62
2021/01/07 11:17:40;;;;;;;42.75;28.17;;;;;;;24.94;41.02;99785.02;1737863;82;21140;-59
2021/01/07 11:20:11;;;;;;;38.85;28.75;;;;;;;24.87;40.79;99783.16;1738615;82;21613;-62
2021/01/07 11:22:41;;;;;;;38.90;28.62;;;;;;;24.82;40.60;99783.97;1739145;82;21628;-58
2021/01/07 11:25:12;;;;;;;41.37;29.65;;;;;;;24.76;40.46;99776.98;1695165;83;22773;-60
2021/01/07 11:27:40;;;;;;;42.30;29.02;;;;;;;24.75;40.27;99779.41;1655577;84;25362;-61
2021/01/07 11:30:11;;;;;;;40.10;29.70;;;;;;;24.75;40.07;99774.55;1685999;82;21148;-62
2021/01/07 11:32:39;;;;;;;41.75;29.50;;;;;;;24.74;39.89;99778.34;1747522;82;21648;-61
2021/01/07 11:35:10;;;;;;;35.03;26.80;;;;;;;24.73;39.82;99778.89;1747950;82;21782;-64
2021/01/07 11:38:01;;;;;;;33.33;25.72;;;;;;;24.74;39.75;99784.55;1733284;81;37514;-62
2021/01/07 11:40:56;;;;;;;29.37;23.98;;;;;;;24.75;39.64;99782.65;1726277;82;21221;-61
2021/01/07 11:43:58;;;;;;;30.72;23.85;;;;;;;24.74;39.54;99776.45;1726231;82;21181;-60
2021/01/07 11:46:33;;;;;;;29.32;22.30;;;;;;;24.75;39.54;99767.25;1725881;82;21198;-66
2021/01/07 11:49:04;;;;;;;29.95;21.23;;;;;;;24.75;39.50;99769.95;1712221;80;24214;-60
2021/01/07 11:51:32;;;;;;;27.73;20.20;;;;;;;24.77;39.49;99773.74;1732451;82;21148;-62
2021/01/07 11:54:02;;;;;;;24.67;19.75;;;;;;;24.79;39.49;99771.04;1733211;82;21532;-62
2021/01/07 11:56:33;;;;;;;26.82;19.12;;;;;;;24.78;39.17;99773.45;1710468;84;21167;-60
2021/01/07 11:59:02;;;;;;;26.55;20.08;;;;;;;24.76;38.83;99771.59;1740193;82;21695;-63
2021/01/07 12:01:32;;;;;;;30.25;23.35;;;;;;;24.72;38.47;99769.15;1725236;82;45680;-61
2021/01/07 12:04:09;;;;;;;31.37;22.17;;;;;;;24.71;38.04;99766.73;1674222;85;21381;-59
2021/01/07 12:07:10;;;;;;;23.90;18.85;;;;;;;24.75;37.58;99767.25;1853009;77;23296;-61
2021/01/07 12:09:43;;;;;;;23.45;19.07;;;;;;;24.66;37.07;99774.33;1776650;78;35709;-62
2021/01/07 12:12:15;;;;;;;29.65;20.02;;;;;;;24.62;36.48;99774.58;1724785;81;21207;-61
2021/01/07 12:35:24;;;;;;;27.10;18.02;;;;;;;24.08;35.22;99766.56;124840;1121;153209;-61
2021/01/07 12:40:54;;;;;;;27.48;19.12;;;;;;;24.02;34.46;99767.64;124768;1121;84273;-58
2021/01/07 12:43:25;;;;;;;27.13;19.37;;;;;;;24.04;34.79;99778.17;125096;1125;39971;-60
2021/01/07 12:45:59;;;;;;;24.52;18.80;;;;;;;24.05;34.63;99768.99;125017;1127;23450;-61
2021/01/07 12:48:30;;;;;;;29.42;17.05;;;;;;;24.04;34.67;99773.58;125265;1127;22450;-61
2021/01/07 12:50:59;;;;;;;29.23;22.17;;;;;;;23.79;33.94;99777.11;124963;1127;25767;-61
2021/01/07 12:53:27;;;;;;;24.05;21.62;;;;;;;23.20;31.47;99769.42;125503;1127;23460;-61
2021/01/07 12:55:57;;;;;;;27.70;24.07;;;;;;;22.80;31.33;99770.86;125218;1127;23315;-59
2021/01/07 12:58:26;;;;;;;22.82;19.80;;;;;;;22.40;31.03;99769.56;124998;1126;22430;-61
2021/01/07 13:01:07;;;;;;;24.30;21.68;;;;;;;22.06;30.09;99767.16;125354;1127;22422;-60
2021/01/07 13:04:36;;;;;;;25.70;23.10;;;;;;;21.77;29.20;99772.02;125527;1127;22428;-62
2021/01/07 13:07:08;;;;;;;26.95;24.05;;;;;;;21.51;29.09;99770.97;125521;1126;22460;-61
2021/01/07 13:09:40;;;;;;;25.63;23.00;;;;;;;21.36;28.92;99778.89;124719;1127;23767;-61
2021/01/07 13:12:10;;;;;;;29.10;25.85;;;;;;;21.19;28.34;99778.11;125729;1127;24874;-61
2021/01/07 13:14:41;;;;;;;35.48;27.17;;;;;;;21.05;29.04;99783.87;125548;1127;24575;-61
2021/01/07 13:17:10;;;;;;;28.45;25.05;;;;;;;20.92;28.43;99781.56;125203;1127;22449;-61
2021/01/07 13:19:38;;;;;;;28.40;24.15;;;;;;;21.09;28.80;99782.33;125308;1126;34005;-60
2021/01/07 13:22:07;;;;;;;27.00;21.45;;;;;;;21.39;29.59;99783.73;125683;1121;36271;-61
2021/01/07 13:24:36;;;;;;;27.75;20.65;;;;;;;21.69;29.62;99785.91;124881;1126;45276;-59
2021/01/07 13:29:10;;;;;;;152.40;102.10;;;;;;;19.37;27.61;99789.28;126071;1124;22466;-75
2021/01/07 13:31:39;;;;;;;104.97;70.08;;;;;;;16.37;29.04;99792.13;125681;1124;22460;-77
2021/01/07 13:34:08;;;;;;;58.85;45.05;;;;;;;;;;125876;1126;22435;-77
2021/01/07 13:36:37;;;;;;;33.78;28.10;;;;;;;;;;125777;1125;22341;-76
2021/01/07 13:39:07;;;;;;;34.43;28.77;;;;;;;;;;126069;1126;22809;-76
2021/01/07 13:41:37;;;;;;;37.40;33.40;;;;;;;;;;125703;1126;24546;-75
2021/01/07 13:44:12;;;;;;;36.55;32.63;;;;;;;;;;125492;1124;51523;-74
2021/01/07 13:48:02;;;;;;;34.27;30.55;;;;;;;;;;125142;1120;146795;-75
2021/01/07 13:50:34;;;;;;;38.10;34.27;;;;;;;;;;125029;1122;123905;-75
2021/01/07 13:53:03;;;;;;;40.88;32.23;;;;;;;;;;125466;1124;229988;-75
2021/01/07 13:57:44;;;;;;;36.05;30.40;;;;;;;;;;125980;1125;48530;-75
2021/01/07 14:00:15;;;;;;;43.30;32.28;;;;;;;;;;125237;1124;139985;-74
2021/01/07 14:03:32;;;;;;;45.80;33.67;;;;;;;;;;125122;1121;211020;-76
2021/01/07 14:06:38;;;;;;;47.60;32.15;;;;;;;;;;125826;1127;22413;-75
2021/01/07 14:09:20;;;;;;;44.67;31.55;;;;;;;;;;125423;1121;44449;-76
2021/01/07 14:15:03;;;;;;;41.02;31.10;;;;;;;;;;124890;1121;175295;-77
2021/01/07 14:35:18;;;;;;;57.15;42.60;;;;;;;;;;125681;1128;22469;-73
2021/01/07 14:37:49;;;;;;;81.17;56.33;;;;;;;;;;122461;1121;2579201;-72
2021/01/07 14:40:26;;;;;;;70.57;51.70;;;;;;;;;;123554;1123;173851;-73
2021/01/07 14:45:22;;;;;;;63.25;49.33;;;;;;;;;;125529;1120;82581;-74
2021/01/07 14:47:56;;;;;;;54.55;45.05;;;;;;;;;;125729;1126;22390;-74
2021/01/07 15:18:59;;;;;;;73.43;38.30;;;;;;;22.70;39.64;99848.89;125076;1123;53440;-53
2021/01/07 15:21:37;;;;;;;58.48;35.73;;;;;;;22.48;37.49;99844.42;125233;1126;42285;-50
2021/01/07 15:24:17;;;;;;;51.43;32.13;;;;;;;22.59;36.01;99845.30;125478;1127;22433;-56
2021/01/07 15:29:54;;;;;;;33.33;28.75;;;;;;;16.28;38.59;99844.89;126150;1127;22507;-81
2021/01/07 15:33:02;;;;;;;43.50;38.92;;;;;;;13.35;40.98;99849.07;125643;1125;24221;-81
2021/01/07 15:35:37;;;;;;;43.35;34.95;;;;;;;;;;125742;1126;22476;-81
2021/01/07 15:38:25;;;;;;;52.60;40.00;;;;;;;;;;126242;1126;22437;-78
2021/01/07 15:41:20;;;;;;;43.52;37.50;;;;;;;;;;126171;1124;24552;-78
2021/01/07 15:43:59;;;;;;;40.48;33.58;;;;;;;;;;126327;1126;22441;-78
2021/01/07 15:46:37;;;;;;;54.38;45.98;;;;;;;;;;126050;1126;22355;-77
2021/01/07 15:49:07;;;;;;;47.90;40.70;;;;;;;;;;125504;1127;25304;-78
2021/01/07 15:51:58;;;;;;;50.78;42.27;;;;;;;;;;125901;1129;22402;-76
2021/01/07 15:54:46;;;;;;;50.10;40.63;;;;;;;;;;125796;1126;22417;-77
2021/01/07 15:57:30;;;;;;;50.05;39.65;;;;;;;;;;125625;1125;24561;-77
2021/01/07 16:00:07;;;;;;;72.17;59.30;;;;;;;;;;125713;1126;22431;-76
2021/01/07 16:02:45;;;;;;;48.90;42.98;;;;;;;;;;125618;1124;49695;-75
2021/01/07 16:05:21;;;;;;;72.60;60.73;;;;;;;;;;125727;1129;22433;-79
2021/01/07 16:08:14;;;;;;;70.90;63.10;;;;;;;;;;125204;1130;23222;-79
2021/01/07 16:10:55;;;;;;;57.20;50.88;;;;;;;;;;125828;1127;22434;-79
2021/01/07 16:13:24;;;;;;;57.70;50.43;;;;;;;;;;125736;1127;24377;-77
2021/01/07 16:15:58;;;;;;;55.45;46.88;;;;;;;;;;125742;1127;22389;-78
2021/01/07 16:18:31;;;;;;;48.75;39.53;;;;;;;;;;125260;1126;45790;-77
2021/01/07 16:21:11;;;;;;;51.18;41.23;;;;;;;;;;125179;1129;22453;-78
2021/01/07 16:23:47;;;;;;;47.62;40.15;;;;;;;;;;125327;1130;22460;-76
2021/01/07 16:26:30;;;;;;;51.48;41.20;;;;;;;;;;125003;1130;22433;-76
2021/01/07 16:29:00;;;;;;;48.52;40.43;;;;;;;;;;125391;1130;22450;-77
2021/01/07 16:31:30;;;;;;;46.92;37.45;;;;;;;;;;125353;1129;22442;-77
2021/01/07 16:34:00;;;;;;;61.20;42.10;;;;;;;;;;125054;1127;22442;-76
2021/01/07 16:36:29;;;;;;;54.20;43.25;;;;;;;;;;125391;1129;22476;-76
2021/01/07 16:38:59;;;;;;;50.38;38.92;;;;;;;;;;125387;1126;106429;-75
2021/01/07 16:42:54;;;;;;;57.95;46.45;;;;;;;;;;125455;1119;108837;-76
2021/01/07 16:45:22;;;;;;;57.35;44.42;;;;;;;;;;125410;1126;46421;-75
2021/01/07 16:47:50;;;;;;;60.98;47.48;;;;;;;;;;125912;1128;22436;-76
2021/01/07 16:50:19;;;;;;;57.55;48.35;;;;;;;;;;125542;1129;22611;-77